Time;durP1;ratioP1;P1;durP2;ratioP2;P2;SDS_P1;SDS_P2;PMS_P1;PMS_P2;Temp;Humidity;BMP_temperature;BMP_pressure;BME280_temperature;BME280_humidity;BME280_pressure;Samples;Min_cycle;Max_cycle;Signal;HPM_P1;HPM_P2
2023/03/27 00:01:22;;;;;;;;;;;12.90;62.30;;;;;;5105750;27;82115;-40
2023/03/27 00:03:49;;;;;;;;;;;12.90;62.10;;;;;;5105399;27;83745;-40
2023/03/27 00:06:15;;;;;;;;;;;12.90;62.20;;;;;;5105150;27;84783;-40
2023/03/27 00:08:41;;;;;;;;;;;12.80;62.10;;;;;;5105547;27;81328;-40
2023/03/27 00:11:07;;;;;;;;;;;12.80;62.10;;;;;;5105237;27;83458;-40
2023/03/27 00:13:32;;;;;;;;;;;12.80;62.30;;;;;;5104578;27;84345;-40
2023/03/27 00:15:58;;;;;;;;;;;12.80;62.20;;;;;;5108093;27;83035;-40
2023/03/27 00:18:25;;;;;;;;;;;12.80;62.30;;;;;;5105580;27;85005;-40
2023/03/27 00:20:50;;;;;;;;;;;12.80;62.40;;;;;;5105705;27;82295;-40
2023/03/27 00:23:18;;;;;;;;;;;12.80;62.40;;;;;;5105244;27;83975;-40
2023/03/27 00:25:47;;;;;;;;;;;12.80;62.50;;;;;;5105101;27;82973;-40
2023/03/27 00:28:12;;;;;;;;;;;12.70;62.40;;;;;;5105804;27;81984;-40
2023/03/27 00:30:39;;;;;;;;;;;12.70;62.40;;;;;;5101368;27;83974;-40
2023/03/27 00:33:06;;;;;;;;;;;12.70;62.40;;;;;;5105859;27;81398;-40
2023/03/27 00:35:32;;;;;;;;;;;12.70;62.30;;;;;;5104812;27;82155;-40
2023/03/27 00:37:57;;;;;;;;;;;12.70;62.30;;;;;;5108953;27;81941;-40
2023/03/27 00:40:24;;;;;;;;;;;12.70;62.50;;;;;;5106609;27;83473;-40
2023/03/27 00:42:50;;;;;;;;;;;12.70;62.50;;;;;;5108573;27;84972;-40
2023/03/27 00:45:16;;;;;;;;;;;12.70;62.50;;;;;;5108551;27;83769;-40
2023/03/27 00:47:42;;;;;;;;;;;12.60;62.50;;;;;;5108872;27;82106;-40
2023/03/27 00:50:09;;;;;;;;;;;12.60;62.40;;;;;;5109013;27;82933;-40
2023/03/27 00:52:37;;;;;;;;;;;12.60;62.60;;;;;;5108439;27;84252;-40
2023/03/27 00:55:06;;;;;;;;;;;12.60;62.50;;;;;;5108573;27;82102;-40
2023/03/27 00:57:31;;;;;;;;;;;12.60;62.70;;;;;;5105032;27;83824;-40
2023/03/27 00:59:58;;;;;;;;;;;12.60;62.70;;;;;;5111027;27;84287;-40
2023/03/27 01:02:25;;;;;;;;;;;12.60;62.90;;;;;;5108440;27;84051;-40
2023/03/27 01:04:52;;;;;;;;;;;12.50;62.80;;;;;;5107541;27;85222;-40
2023/03/27 01:07:18;;;;;;;;;;;12.60;62.80;;;;;;5108151;27;82226;-40
2023/03/27 01:09:44;;;;;;;;;;;12.50;62.70;;;;;;5108411;27;83790;-40
2023/03/27 01:12:16;;;;;;;;;;;12.50;62.80;;;;;;5107848;27;84150;-40
2023/03/27 01:14:44;;;;;;;;;;;12.50;62.80;;;;;;5104283;27;82675;-40
2023/03/27 01:17:25;;;;;;;;;;;12.50;62.90;;;;;;5108132;27;83983;-40
2023/03/27 01:19:52;;;;;;;;;;;12.50;63.00;;;;;;5104728;27;83080;-40
2023/03/27 01:22:36;;;;;;;;;;;12.50;62.90;;;;;;5111225;27;81372;-40
2023/03/27 01:25:10;;;;;;;;;;;12.50;62.90;;;;;;5104281;27;84542;-40
2023/03/27 01:27:42;;;;;;;;;;;12.50;63.00;;;;;;5107995;27;82099;-40
2023/03/27 01:30:18;;;;;;;;;;;12.40;62.90;;;;;;5107644;27;83236;-40
2023/03/27 01:32:49;;;;;;;;;;;12.40;63.10;;;;;;5107705;27;84579;-40
2023/03/27 01:35:34;;;;;;;;;;;12.40;63.00;;;;;;5108138;27;82468;-40
2023/03/27 01:38:05;;;;;;;;;;;12.50;63.20;;;;;;5106590;27;82120;-40
2023/03/27 01:40:39;;;;;;;;;;;12.40;63.20;;;;;;5108002;27;82992;-40
2023/03/27 01:43:16;;;;;;;;;;;12.40;63.10;;;;;;5110761;27;82652;-40
2023/03/27 01:45:51;;;;;;;;;;;12.40;63.20;;;;;;5107418;27;84649;-40
2023/03/27 01:48:16;;;;;;;;;;;12.40;63.30;;;;;;5108173;27;81215;-40
2023/03/27 01:51:08;;;;;;;;;;;12.40;63.20;;;;;;5107939;27;82145;-40
2023/03/27 01:53:39;;;;;;;;;;;12.40;63.30;;;;;;5100472;27;83532;-40
2023/03/27 01:56:12;;;;;;;;;;;12.30;63.30;;;;;;5103162;27;83042;-40
2023/03/27 01:58:40;;;;;;;;;;;12.30;63.30;;;;;;5107508;27;84838;-40
2023/03/27 02:01:08;;;;;;;;;;;12.30;63.40;;;;;;5107662;27;84344;-40
2023/03/27 02:03:38;;;;;;;;;;;12.30;63.40;;;;;;5107337;27;82178;-40
2023/03/27 02:06:09;;;;;;;;;;;12.30;63.50;;;;;;5109931;27;82256;-40
2023/03/27 02:08:41;;;;;;;;;;;12.30;63.50;;;;;;5107270;27;81997;-40
2023/03/27 02:11:07;;;;;;;;;;;12.30;63.50;;;;;;5107438;27;83047;-40
2023/03/27 02:13:32;;;;;;;;;;;12.30;63.50;;;;;;5106428;27;83366;-40
2023/03/27 02:15:59;;;;;;;;;;;12.30;63.70;;;;;;5106920;27;82109;-40
2023/03/27 02:18:32;;;;;;;;;;;12.30;63.60;;;;;;5107090;27;83833;-40
2023/03/27 02:20:58;;;;;;;;;;;12.30;63.60;;;;;;5106184;27;83092;-40
2023/03/27 02:23:23;;;;;;;;;;;12.20;63.60;;;;;;5107392;27;82633;-40
2023/03/27 02:25:50;;;;;;;;;;;12.30;63.70;;;;;;5107084;27;83826;-40
2023/03/27 02:28:22;;;;;;;;;;;12.20;63.60;;;;;;5109561;27;83029;-40
2023/03/27 02:30:56;;;;;;;;;;;12.20;63.80;;;;;;5107020;27;84241;-40
2023/03/27 02:33:38;;;;;;;;;;;12.20;63.70;;;;;;5103390;27;84466;-40
2023/03/27 02:36:04;;;;;;;;;;;12.10;63.70;;;;;;5106588;27;81981;-40
2023/03/27 02:38:36;;;;;;;;;;;12.10;63.70;;;;;;5107305;27;83850;-40
2023/03/27 02:41:05;;;;;;;;;;;12.10;63.80;;;;;;5106729;27;84604;-40
2023/03/27 02:43:36;;;;;;;;;;;12.10;63.80;;;;;;5106189;27;82423;-40
2023/03/27 02:46:12;;;;;;;;;;;12.10;63.80;;;;;;5102652;27;84132;-40
2023/03/27 02:48:40;;;;;;;;;;;12.10;64.00;;;;;;5106481;27;83498;-40
2023/03/27 02:51:08;;;;;;;;;;;12.10;64.00;;;;;;5109751;27;82294;-40
2023/03/27 02:53:36;;;;;;;;;;;12.10;63.90;;;;;;5106219;27;84555;-40
2023/03/27 02:56:03;;;;;;;;;;;12.10;64.00;;;;;;5106315;27;82138;-40
2023/03/27 02:58:33;;;;;;;;;;;12.10;64.00;;;;;;5106567;27;83093;-40
2023/03/27 03:00:59;;;;;;;;;;;12.10;64.00;;;;;;5105870;27;84714;-40
2023/03/27 03:03:40;;;;;;;;;;;12.00;63.90;;;;;;5106861;27;81436;-40
2023/03/27 03:06:06;;;;;;;;;;;12.00;64.10;;;;;;5106772;27;83084;-40
2023/03/27 03:08:37;;;;;;;;;;;12.00;64.10;;;;;;5106559;27;82725;-40
2023/03/27 03:11:07;;;;;;;;;;;12.00;64.10;;;;;;5101668;27;84088;-40
2023/03/27 03:13:33;;;;;;;;;;;12.00;64.10;;;;;;5108256;27;85061;-40
2023/03/27 03:15:59;;;;;;;;;;;12.00;64.10;;;;;;5106006;27;82169;-40
2023/03/27 03:18:25;;;;;;;;;;;12.00;64.30;;;;;;5106186;27;84046;-40
2023/03/27 03:20:53;;;;;;;;;;;12.00;64.30;;;;;;5105960;27;84562;-40
2023/03/27 03:23:19;;;;;;;;;;;12.00;64.20;;;;;;5105738;27;82108;-40
2023/03/27 03:25:46;;;;;;;;;;;12.00;64.30;;;;;;5105865;27;82351;-40
2023/03/27 03:28:12;;;;;;;;;;;11.90;64.30;;;;;;5106306;27;83673;-40
2023/03/27 03:30:41;;;;;;;;;;;11.90;64.30;;;;;;5105901;27;82139;-40
2023/03/27 03:33:08;;;;;;;;;;;11.90;64.30;;;;;;5108508;27;84084;-40
2023/03/27 03:35:33;;;;;;;;;;;11.90;64.30;;;;;;5105574;27;83002;-40
2023/03/27 03:37:59;;;;;;;;;;;11.90;64.30;;;;;;5105905;27;83412;-40
2023/03/27 03:40:25;;;;;;;;;;;11.80;64.40;;;;;;5105490;27;84425;-40
2023/03/27 03:42:51;;;;;;;;;;;11.90;64.40;;;;;;5105974;27;82145;-40
2023/03/27 03:45:17;;;;;;;;;;;11.80;64.40;;;;;;5106103;27;82386;-40
2023/03/27 03:47:44;;;;;;;;;;;11.80;64.40;;;;;;5105753;27;83259;-40
2023/03/27 03:50:10;;;;;;;;;;;11.80;64.50;;;;;;5105781;27;82140;-40
2023/03/27 03:52:36;;;;;;;;;;;11.80;64.40;;;;;;5106188;27;83849;-40
2023/03/27 03:55:03;;;;;;;;;;;11.80;64.50;;;;;;5108223;27;84709;-40
2023/03/27 03:57:29;;;;;;;;;;;11.80;64.40;;;;;;5105571;27;84154;-40
2023/03/27 03:59:56;;;;;;;;;;;11.80;64.50;;;;;;5105156;27;83845;-40
2023/03/27 04:02:27;;;;;;;;;;;11.80;64.60;;;;;;5105830;27;82080;-40
2023/03/27 04:04:56;;;;;;;;;;;11.70;64.60;;;;;;5106267;27;82478;-40
2023/03/27 04:07:22;;;;;;;;;;;11.70;64.60;;;;;;5105388;27;84355;-40
2023/03/27 04:09:49;;;;;;;;;;;11.70;64.60;;;;;;5105272;27;82054;-40
2023/03/27 04:12:15;;;;;;;;;;;11.70;64.60;;;;;;5105656;27;84176;-40
2023/03/27 04:14:41;;;;;;;;;;;11.70;64.60;;;;;;5108048;27;84601;-40
2023/03/27 04:17:06;;;;;;;;;;;11.70;64.70;;;;;;5112539;27;81273;-40
2023/03/27 04:19:32;;;;;;;;;;;11.70;64.70;;;;;;5109056;27;83294;-40
2023/03/27 04:22:01;;;;;;;;;;;11.70;64.70;;;;;;5108993;27;82079;-40
2023/03/27 04:24:29;;;;;;;;;;;11.70;64.80;;;;;;5107965;27;83839;-40
2023/03/27 04:26:57;;;;;;;;;;;11.70;64.80;;;;;;5108490;27;84518;-40
2023/03/27 04:29:23;;;;;;;;;;;11.70;64.80;;;;;;5108828;27;81976;-40
2023/03/27 04:31:49;;;;;;;;;;;11.70;64.80;;;;;;5108871;27;83929;-40
2023/03/27 04:34:19;;;;;;;;;;;11.60;64.80;;;;;;5108232;27;84535;-40
2023/03/27 04:36:44;;;;;;;;;;;11.60;64.80;;;;;;5108181;27;81960;-40
2023/03/27 04:39:10;;;;;;;;;;;11.60;64.80;;;;;;5111279;27;82227;-40
2023/03/27 04:41:37;;;;;;;;;;;11.60;64.90;;;;;;5108820;27;81867;-40
2023/03/27 04:44:04;;;;;;;;;;;11.60;64.90;;;;;;5108503;27;83133;-40
2023/03/27 04:46:29;;;;;;;;;;;11.70;65.00;;;;;;5108009;27;84451;-40
2023/03/27 04:48:55;;;;;;;;;;;11.70;64.90;;;;;;5103423;27;83601;-40
2023/03/27 04:51:21;;;;;;;;;;;11.60;64.90;;;;;;5108226;27;84904;-40
2023/03/27 04:53:46;;;;;;;;;;;11.60;65.00;;;;;;5108122;27;82940;-40
2023/03/27 04:56:12;;;;;;;;;;;11.60;65.00;;;;;;5107958;27;82230;-40
2023/03/27 04:58:40;;;;;;;;;;;11.60;65.00;;;;;;5108256;27;84043;-40
2023/03/27 05:01:05;;;;;;;;;;;11.60;65.00;;;;;;5107438;27;84589;-40
2023/03/27 05:03:31;;;;;;;;;;;11.60;65.00;;;;;;5108680;27;82462;-40
2023/03/27 05:05:57;;;;;;;;;;;11.60;65.10;;;;;;5108659;27;83690;-40
2023/03/27 05:08:22;;;;;;;;;;;11.60;65.10;;;;;;5108529;27;82099;-40
2023/03/27 05:10:48;;;;;;;;;;;11.60;65.10;;;;;;5108318;27;83851;-40
2023/03/27 05:13:13;;;;;;;;;;;11.60;65.10;;;;;;5106779;27;84164;-40
2023/03/27 05:15:39;;;;;;;;;;;11.50;65.10;;;;;;5104240;27;81896;-40
2023/03/27 05:18:05;;;;;;;;;;;11.50;65.10;;;;;;5107891;27;83949;-40
2023/03/27 05:20:31;;;;;;;;;;;11.60;65.20;;;;;;5107956;27;84410;-40
2023/03/27 05:22:57;;;;;;;;;;;11.50;65.10;;;;;;5110945;27;81955;-40
2023/03/27 05:25:23;;;;;;;;;;;11.50;65.10;;;;;;5107748;27;83158;-40
2023/03/27 05:27:49;;;;;;;;;;;11.50;65.40;;;;;;5108072;27;82187;-40
2023/03/27 05:30:16;;;;;;;;;;;11.50;65.20;;;;;;5104326;27;83666;-40
2023/03/27 05:32:50;;;;;;;;;;;11.50;65.20;;;;;;5107766;27;84351;-40
2023/03/27 05:35:17;;;;;;;;;;;11.50;65.20;;;;;;5107579;27;82075;-40
2023/03/27 05:37:46;;;;;;;;;;;11.50;65.20;;;;;;5106879;27;83342;-40
2023/03/27 05:40:14;;;;;;;;;;;11.50;65.20;;;;;;5107268;27;84711;-40
2023/03/27 05:42:43;;;;;;;;;;;11.50;65.20;;;;;;5110169;27;82354;-40
2023/03/27 05:45:09;;;;;;;;;;;11.50;65.30;;;;;;5106933;27;82713;-40
2023/03/27 05:48:07;;;;;;;;;;;11.50;65.20;;;;;;5106700;27;82200;-40
2023/03/27 05:50:34;;;;;;;;;;;11.50;65.20;;;;;;5063695;27;82160;-40
2023/03/27 05:53:05;;;;;;;;;;;11.50;65.30;;;;;;5106860;27;82901;-40
2023/03/27 05:55:30;;;;;;;;;;;11.50;65.30;;;;;;5107244;27;81374;-40
2023/03/27 05:57:56;;;;;;;;;;;11.50;65.20;;;;;;5107016;27;81961;-40
2023/03/27 06:00:24;;;;;;;;;;;11.50;65.30;;;;;;5098215;27;84631;-40
2023/03/27 06:02:57;;;;;;;;;;;11.50;65.40;;;;;;5105268;27;83020;-40
2023/03/27 06:05:24;;;;;;;;;;;11.40;65.30;;;;;;5109085;27;84872;-40
2023/03/27 06:07:50;;;;;;;;;;;11.40;65.30;;;;;;5106568;27;82140;-40
2023/03/27 06:10:19;;;;;;;;;;;11.50;65.30;;;;;;5102952;27;82477;-40
2023/03/27 06:12:45;;;;;;;;;;;11.50;65.40;;;;;;5106219;27;83641;-41
2023/03/27 06:15:11;;;;;;;;;;;11.40;65.30;;;;;;5106451;27;81926;-40
2023/03/27 06:17:41;;;;;;;;;;;11.40;65.40;;;;;;5107351;27;82614;-40
2023/03/27 06:20:14;;;;;;;;;;;11.50;65.50;;;;;;5107037;27;83976;-40
2023/03/27 06:22:46;;;;;;;;;;;11.40;65.40;;;;;;5106821;27;81985;-40
2023/03/27 06:25:13;;;;;;;;;;;11.50;65.50;;;;;;5106860;27;82951;-40
2023/03/27 06:27:40;;;;;;;;;;;11.50;65.50;;;;;;5109242;27;83957;-40
2023/03/27 06:30:06;;;;;;;;;;;11.40;65.50;;;;;;5106818;27;84821;-40
2023/03/27 06:32:32;;;;;;;;;;;11.50;65.70;;;;;;5106825;27;83638;-40
2023/03/27 06:34:58;;;;;;;;;;;11.40;65.60;;;;;;5106455;27;82023;-40
2023/03/27 06:37:23;;;;;;;;;;;11.40;65.60;;;;;;5106016;27;83786;-40
2023/03/27 06:39:49;;;;;;;;;;;11.50;65.70;;;;;;5106534;27;84362;-40
2023/03/27 06:42:15;;;;;;;;;;;11.40;65.60;;;;;;5106790;27;82429;-40
2023/03/27 06:44:40;;;;;;;;;;;11.40;65.60;;;;;;5107058;27;82686;-40
2023/03/27 06:47:06;;;;;;;;;;;11.50;65.60;;;;;;5106684;27;84638;-40
2023/03/27 06:49:31;;;;;;;;;;;11.50;65.70;;;;;;5109196;27;81952;-40
2023/03/27 06:51:57;;;;;;;;;;;11.40;65.70;;;;;;5106016;27;83936;-40
2023/03/27 06:54:23;;;;;;;;;;;11.40;65.70;;;;;;5106444;27;82031;-40
2023/03/27 06:56:48;;;;;;;;;;;11.50;65.70;;;;;;5106644;27;83697;-40
2023/03/27 06:59:14;;;;;;;;;;;11.50;65.70;;;;;;5106316;27;84503;-40
2023/03/27 07:01:39;;;;;;;;;;;11.50;65.70;;;;;;5102338;27;82543;-40
2023/03/27 07:04:05;;;;;;;;;;;11.50;65.80;;;;;;5106095;27;83939;-40
2023/03/27 07:06:31;;;;;;;;;;;11.50;65.70;;;;;;5105920;27;83414;-40
2023/03/27 07:08:56;;;;;;;;;;;11.50;65.70;;;;;;5106603;27;81650;-40
2023/03/27 07:11:22;;;;;;;;;;;11.40;65.70;;;;;;5108761;27;83575;-40
2023/03/27 07:13:47;;;;;;;;;;;11.50;65.70;;;;;;5101458;27;82154;-40
2023/03/27 07:16:13;;;;;;;;;;;11.50;65.80;;;;;;5105453;27;83319;-40
2023/03/27 07:18:40;;;;;;;;;;;11.50;65.80;;;;;;5105816;27;82866;-40
2023/03/27 07:21:07;;;;;;;;;;;11.40;65.80;;;;;;5106094;27;82081;-40
2023/03/27 07:23:32;;;;;;;;;;;11.50;65.90;;;;;;5106216;27;84112;-40
2023/03/27 07:25:59;;;;;;;;;;;11.40;65.90;;;;;;5105383;27;84229;-39
2023/03/27 07:28:25;;;;;;;;;;;11.40;65.90;;;;;;5105990;27;81984;-39
2023/03/27 07:30:50;;;;;;;;;;;11.50;65.90;;;;;;5105539;27;82376;-39
2023/03/27 07:33:16;;;;;;;;;;;11.50;65.80;;;;;;5108285;27;83326;-40
2023/03/27 07:35:45;;;;;;;;;;;11.50;65.80;;;;;;5105790;27;82042;-40
2023/03/27 07:38:11;;;;;;;;;;;11.50;65.70;;;;;;5101866;27;82283;-40
2023/03/27 07:40:37;;;;;;;;;;;11.50;65.70;;;;;;5104735;27;83101;-40
2023/03/27 07:43:05;;;;;;;;;;;11.50;65.60;;;;;;5105839;27;83242;-40
2023/03/27 07:45:31;;;;;;;;;;;11.50;65.60;;;;;;5105741;27;84344;-40
2023/03/27 07:48:03;;;;;;;;;;;11.50;65.50;;;;;;5108005;27;82789;-40
2023/03/27 07:50:28;;;;;;;;;;;11.50;65.50;;;;;;5109271;27;83140;-40
2023/03/27 07:52:54;;;;;;;;;;;11.50;65.50;;;;;;5111752;27;84770;-40
2023/03/27 07:55:21;;;;;;;;;;;11.50;65.60;;;;;;5109488;27;82895;-40
2023/03/27 07:57:47;;;;;;;;;;;11.50;65.60;;;;;;5109606;27;83879;-40
2023/03/27 08:00:14;;;;;;;;;;;11.50;65.70;;;;;;5109003;27;82539;-40
2023/03/27 08:02:40;;;;;;;;;;;11.50;65.70;;;;;;5104288;27;82038;-40
2023/03/27 08:05:07;;;;;;;;;;;11.50;65.60;;;;;;5107643;27;85201;-40
2023/03/27 08:07:33;;;;;;;;;;;11.40;65.60;;;;;;5108795;27;82009;-40
2023/03/27 08:09:58;;;;;;;;;;;11.50;65.70;;;;;;5108996;27;82670;-40
2023/03/27 08:12:24;;;;;;;;;;;11.40;65.50;;;;;;5108940;27;83210;-40
2023/03/27 08:14:50;;;;;;;;;;;11.40;65.50;;;;;;5111628;27;82415;-40
2023/03/27 08:17:15;;;;;;;;;;;11.40;65.50;;;;;;5108288;27;84937;-39
2023/03/27 08:19:41;;;;;;;;;;;11.40;65.50;;;;;;5109348;27;82904;-39
2023/03/27 08:22:07;;;;;;;;;;;11.40;65.40;;;;;;5109225;27;83978;-39
2023/03/27 08:24:33;;;;;;;;;;;11.40;65.50;;;;;;5108483;27;84402;-40
2023/03/27 08:26:58;;;;;;;;;;;11.50;65.60;;;;;;5108978;27;82010;-40
2023/03/27 08:29:24;;;;;;;;;;;11.40;65.50;;;;;;5107421;27;84191;-40
2023/03/27 08:31:49;;;;;;;;;;;11.40;65.40;;;;;;5107650;27;83418;-39
2023/03/27 08:34:16;;;;;;;;;;;11.40;65.20;;;;;;5108305;27;82198;-40
2023/03/27 08:36:41;;;;;;;;;;;11.50;65.00;;;;;;5110523;27;84404;-40
2023/03/27 08:39:07;;;;;;;;;;;11.50;65.10;;;;;;5107916;27;82598;-40
2023/03/27 08:41:37;;;;;;;;;;;11.50;65.10;;;;;;5108238;27;84054;-40
2023/03/27 08:44:05;;;;;;;;;;;11.50;65.00;;;;;;5104280;27;89511;-40
2023/03/27 08:46:32;;;;;;;;;;;11.50;65.10;;;;;;5105171;27;86584;-40
2023/03/27 08:49:03;;;;;;;;;;;11.50;65.00;;;;;;5104602;27;87430;-39
2023/03/27 08:51:32;;;;;;;;;;;11.50;64.70;;;;;;5104663;27;89113;-40
2023/03/27 08:54:02;;;;;;;;;;;11.50;64.80;;;;;;5104470;27;87944;-40
2023/03/27 08:56:27;;;;;;;;;;;11.50;64.70;;;;;;5100920;27;88878;-40
2023/03/27 08:58:53;;;;;;;;;;;11.50;64.80;;;;;;5106509;27;89418;-40
2023/03/27 09:01:35;;;;;;;;;;;11.50;64.90;;;;;;5104543;27;88024;-40
2023/03/27 09:04:10;;;;;;;;;;;11.50;65.00;;;;;;5100096;27;89019;-40
2023/03/27 09:06:44;;;;;;;;;;;11.50;64.80;;;;;;5104047;27;87618;-40
2023/03/27 09:09:16;;;;;;;;;;;11.50;64.90;;;;;;5100785;27;87243;-40
2023/03/27 09:12:00;;;;;;;;;;;11.50;64.80;;;;;;5104091;27;87664;-40
2023/03/27 09:14:30;;;;;;;;;;;11.50;64.80;;;;;;5096964;27;87809;-40
2023/03/27 09:16:58;;;;;;;;;;;11.50;64.80;;;;;;5103736;27;89001;-40
2023/03/27 09:19:33;;;;;;;;;;;11.50;64.80;;;;;;5102578;27;90494;-39
2023/03/27 09:22:04;;;;;;;;;;;11.50;64.80;;;;;;5103826;27;87547;-39
2023/03/27 09:24:36;;;;;;;;;;;11.50;64.70;;;;;;5103452;27;89560;-40
2023/03/27 09:27:11;;;;;;;;;;;11.50;64.80;;;;;;5099860;27;86993;-40
2023/03/27 09:29:39;;;;;;;;;;;11.50;64.80;;;;;;5104298;27;89099;-40
2023/03/27 09:32:08;;;;;;;;;;;11.50;64.80;;;;;;5102035;27;91282;-40
2023/03/27 09:34:35;;;;;;;;;;;11.40;64.90;;;;;;5100186;27;87112;-40
2023/03/27 09:37:01;;;;;;;;;;;11.40;64.90;;;;;;5104349;27;89013;-40
2023/03/27 09:39:28;;;;;;;;;;;11.40;65.10;;;;;;5103571;27;89600;-40
2023/03/27 09:41:57;;;;;;;;;;;11.50;65.10;;;;;;5103893;27;87120;-40
2023/03/27 09:44:25;;;;;;;;;;;11.50;65.20;;;;;;5106381;27;88157;-39
2023/03/27 09:47:03;;;;;;;;;;;11.40;65.20;;;;;;5099614;27;87830;-39
2023/03/27 09:49:29;;;;;;;;;;;11.50;65.40;;;;;;5103940;27;88421;-39
2023/03/27 09:51:57;;;;;;;;;;;11.40;65.40;;;;;;5103563;27;89590;-40
2023/03/27 09:54:24;;;;;;;;;;;11.50;65.50;;;;;;5103102;27;87230;-39
2023/03/27 09:56:53;;;;;;;;;;;11.50;65.50;;;;;;5103571;27;89066;-39
2023/03/27 09:59:22;;;;;;;;;;;11.50;65.50;;;;;;5103255;27;89409;-40
2023/03/27 10:01:49;;;;;;;;;;;11.50;65.50;;;;;;5102786;27;86505;-40
2023/03/27 10:04:16;;;;;;;;;;;11.40;65.50;;;;;;5106559;27;87017;-39
2023/03/27 10:06:47;;;;;;;;;;;11.40;65.60;;;;;;5103802;27;87131;-40
2023/03/27 10:09:23;;;;;;;;;;;11.40;65.70;;;;;;5103377;27;88684;-40
2023/03/27 10:11:50;;;;;;;;;;;11.40;65.70;;;;;;5100119;27;88429;-39
2023/03/27 10:14:17;;;;;;;;;;;11.40;65.80;;;;;;5102988;27;87462;-40
2023/03/27 10:16:44;;;;;;;;;;;11.40;65.80;;;;;;5103418;27;88690;-39
2023/03/27 10:19:30;;;;;;;;;;;11.40;65.80;;;;;;5103333;27;88996;-39
2023/03/27 10:21:59;;;;;;;;;;;11.40;65.80;;;;;;5102204;27;87100;-40
2023/03/27 10:24:27;;;;;;;;;;;11.40;65.80;;;;;;5103431;27;89850;-40
2023/03/27 10:26:53;;;;;;;;;;;11.40;65.90;;;;;;5106553;27;88738;-40
2023/03/27 10:29:24;;;;;;;;;;;11.40;65.90;;;;;;5103647;27;87628;-40
2023/03/27 10:31:51;;;;;;;;;;;11.40;65.90;;;;;;5102784;27;88642;-39
2023/03/27 10:34:36;;;;;;;;;;;11.40;65.90;;;;;;5103066;27;88275;-40
2023/03/27 10:37:03;;;;;;;;;;;11.50;65.90;;;;;;5103320;27;89582;-40
2023/03/27 10:39:33;;;;;;;;;;;11.50;66.00;;;;;;5102753;27;90107;-40
2023/03/27 10:42:05;;;;;;;;;;;11.50;66.00;;;;;;5102909;27;87131;-40
2023/03/27 10:44:30;;;;;;;;;;;11.50;66.10;;;;;;5102824;27;88957;-39
2023/03/27 10:46:56;;;;;;;;;;;11.50;66.00;;;;;;5099022;27;90419;-40
2023/03/27 10:49:23;;;;;;;;;;;11.50;66.00;;;;;;5105902;27;87001;-40
2023/03/27 10:51:57;;;;;;;;;;;11.50;65.90;;;;;;5103149;27;88707;-40
2023/03/27 10:54:36;;;;;;;;;;;11.50;65.90;;;;;;5103140;27;87625;-40
2023/03/27 10:57:34;;;;;;;;;;;11.60;66.00;;;;;;5099961;27;87718;-40
2023/03/27 11:00:18;;;;;;;;;;;11.60;66.10;;;;;;5066506;27;90156;-40
2023/03/27 11:03:05;;;;;;;;;;;11.60;66.00;;;;;;5100676;27;87039;-40
2023/03/27 11:05:33;;;;;;;;;;;11.60;66.00;;;;;;5099948;27;88767;-39
2023/03/27 11:08:12;;;;;;;;;;;11.60;66.00;;;;;;5102633;27;89301;-40
2023/03/27 11:10:44;;;;;;;;;;;11.60;66.10;;;;;;5099460;27;87005;-40
2023/03/27 11:13:14;;;;;;;;;;;11.60;66.00;;;;;;5104871;27;88970;-40
2023/03/27 11:15:42;;;;;;;;;;;11.70;66.10;;;;;;5100688;27;87138;-40
2023/03/27 11:18:11;;;;;;;;;;;11.60;66.10;;;;;;5099450;27;87863;-39
2023/03/27 11:20:43;;;;;;;;;;;11.60;66.00;;;;;;5102083;27;88249;-40
2023/03/27 11:23:20;;;;;;;;;;;11.70;66.00;;;;;;5101568;27;87038;-40
2023/03/27 11:25:50;;;;;;;;;;;11.60;66.00;;;;;;5094917;27;88944;-39
2023/03/27 11:28:16;;;;;;;;;;;11.60;66.00;;;;;;5101868;27;88086;-40
2023/03/27 11:30:54;;;;;;;;;;;11.60;65.90;;;;;;5102274;27;87779;-40
2023/03/27 11:33:34;;;;;;;;;;;11.60;66.10;;;;;;5099836;27;88910;-40
2023/03/27 11:36:08;;;;;;;;;;;11.60;66.10;;;;;;5100165;27;89300;-40
2023/03/27 11:38:37;;;;;;;;;;;11.60;66.10;;;;;;5100211;27;88957;-40
2023/03/27 11:41:02;;;;;;;;;;;11.60;66.20;;;;;;5102317;27;87958;-40
2023/03/27 11:43:28;;;;;;;;;;;11.60;66.30;;;;;;5102888;27;86185;-40
2023/03/27 11:46:02;;;;;;;;;;;11.60;66.40;;;;;;5102215;27;88192;-40
2023/03/27 11:48:31;;;;;;;;;;;11.60;66.50;;;;;;5102012;27;89400;-40
2023/03/27 11:51:04;;;;;;;;;;;11.60;66.50;;;;;;5101777;27;88289;-40
2023/03/27 11:53:48;;;;;;;;;;;11.50;66.60;;;;;;5098021;27;88446;-41
2023/03/27 11:56:16;;;;;;;;;;;11.50;67.40;;;;;;5096882;27;89439;-41
2023/03/27 11:58:48;;;;;;;;;;;11.60;68.70;;;;;;5104528;27;87078;-41
2023/03/27 12:01:20;;;;;;;;;;;11.60;68.30;;;;;;5101051;27;89405;-41
2023/03/27 12:03:55;;;;;;;;;;;11.60;68.30;;;;;;5097830;27;87422;-41
2023/03/27 12:06:40;;;;;;;;;;;11.50;68.40;;;;;;5101723;27;88858;-41
2023/03/27 12:09:12;;;;;;;;;;;11.60;68.40;;;;;;5095421;27;87424;-41
2023/03/27 12:11:41;;;;;;;;;;;11.50;68.40;;;;;;5101487;27;87349;-40
2023/03/27 12:14:25;;;;;;;;;;;11.50;68.40;;;;;;5096927;27;89079;-40
2023/03/27 12:16:57;;;;;;;;;;;11.50;68.50;;;;;;5100318;27;90144;-40
2023/03/27 12:19:28;;;;;;;;;;;11.50;68.40;;;;;;5101946;27;87025;-40
2023/03/27 12:22:12;;;;;;;;;;;11.50;69.20;;;;;;5101506;27;90131;-40
2023/03/27 12:24:54;;;;;;;;;;;11.50;68.30;;;;;;5099199;27;87115;-40
2023/03/27 12:27:36;;;;;;;;;;;11.50;68.40;;;;;;5098083;27;88742;-40
2023/03/27 12:30:13;;;;;;;;;;;11.40;68.20;;;;;;5101412;27;89563;-40
2023/03/27 12:32:48;;;;;;;;;;;11.40;68.90;;;;;;5099560;27;87019;-40
2023/03/27 12:35:16;;;;;;;;;;;11.40;68.30;;;;;;5104508;27;88931;-40
2023/03/27 12:37:41;;;;;;;;;;;11.40;68.20;;;;;;5104916;27;87783;-40
2023/03/27 12:40:27;;;;;;;;;;;11.40;68.10;;;;;;5105221;27;87110;-40
2023/03/27 12:43:04;;;;;;;;;;;11.40;68.10;;;;;;5099068;27;88929;-39
2023/03/27 12:45:29;;;;;;;;;;;11.40;68.00;;;;;;5105430;27;87049;-40
2023/03/27 12:48:10;;;;;;;;;;;11.40;68.10;;;;;;5105196;27;88901;-40
2023/03/27 12:50:50;;;;;;;;;;;11.40;68.10;;;;;;5102998;27;88030;-40
2023/03/27 12:53:28;;;;;;;;;;;11.40;67.90;;;;;;5102206;27;87101;-40
2023/03/27 12:56:11;;;;;;;;;;;11.40;67.90;;;;;;5105055;27;88945;-40
2023/03/27 12:58:37;;;;;;;;;;;11.40;67.80;;;;;;5102910;27;88515;-39
2023/03/27 13:01:04;;;;;;;;;;;11.40;67.80;;;;;;5105800;27;86412;-39
2023/03/27 13:03:30;;;;;;;;;;;11.40;67.90;;;;;;5104753;27;87273;-39
2023/03/27 13:06:05;;;;;;;;;;;11.40;67.90;;;;;;5107258;27;89452;-39
2023/03/27 13:08:49;;;;;;;;;;;11.30;67.70;;;;;;5104239;27;89296;-39
2023/03/27 13:11:36;;;;;;;;;;;11.40;67.70;;;;;;5101974;27;89332;-39
2023/03/27 13:14:10;;;;;;;;;;;11.40;67.70;;;;;;5097053;27;87179;-39
2023/03/27 13:16:51;;;;;;;;;;;11.40;67.80;;;;;;5104531;27;88958;-39
2023/03/27 13:19:19;;;;;;;;;;;11.40;67.70;;;;;;5102020;27;89382;-39
2023/03/27 13:21:47;;;;;;;;;;;11.40;67.70;;;;;;5104644;27;87736;-39
2023/03/27 13:24:31;;;;;;;;;;;11.40;67.70;;;;;;5104263;27;88915;-39
2023/03/27 13:27:20;;;;;;;;;;;11.40;67.70;;;;;;5104957;27;87232;-39
2023/03/27 13:29:50;;;;;;;;;;;11.40;67.60;;;;;;5106066;27;87012;-39
2023/03/27 13:32:35;;;;;;;;;;;11.40;67.70;;;;;;5100349;27;89058;-39
2023/03/27 13:35:16;;;;;;;;;;;11.40;67.70;;;;;;5103548;27;88378;-39
2023/03/27 13:37:47;;;;;;;;;;;11.40;67.70;;;;;;5099980;27;89972;-39
2023/03/27 13:40:19;;;;;;;;;;;11.40;67.70;;;;;;5103628;27;89324;-39
2023/03/27 13:42:47;;;;;;;;;;;11.40;67.70;;;;;;5104475;27;87044;-40
2023/03/27 13:45:18;;;;;;;;;;;11.40;67.70;;;;;;5103763;27;88858;-39
2023/03/27 13:47:46;;;;;;;;;;;11.40;67.60;;;;;;5104125;27;89094;-39
2023/03/27 13:50:21;;;;;;;;;;;11.30;67.70;;;;;;5104041;27;87129;-39
2023/03/27 13:52:49;;;;;;;;;;;11.30;67.60;;;;;;5107303;27;88719;-39
2023/03/27 13:55:15;;;;;;;;;;;11.40;67.70;;;;;;5104036;27;87036;-39
2023/03/27 13:57:56;;;;;;;;;;;11.30;67.70;;;;;;5103985;27;87973;-39
2023/03/27 14:00:29;;;;;;;;;;;11.40;67.70;;;;;;5103417;27;88221;-39
2023/03/27 14:02:55;;;;;;;;;;;11.30;67.70;;;;;;5097048;27;87707;-39
2023/03/27 14:05:35;;;;;;;;;;;11.30;67.70;;;;;;5103877;27;88695;-39
2023/03/27 14:08:13;;;;;;;;;;;11.30;67.80;;;;;;5099755;27;89538;-39
2023/03/27 14:10:45;;;;;;;;;;;11.30;67.70;;;;;;5104119;27;87129;-39
2023/03/27 14:13:20;;;;;;;;;;;11.30;67.70;;;;;;5106119;27;88713;-39
2023/03/27 14:15:53;;;;;;;;;;;11.30;67.70;;;;;;5103216;27;88823;-39
2023/03/27 14:18:27;;;;;;;;;;;11.30;67.60;;;;;;5104455;27;87356;-39
2023/03/27 14:20:59;;;;;;;;;;;11.30;67.70;;;;;;5098922;27;89722;-39
2023/03/27 14:23:27;;;;;;;;;;;11.40;67.70;;;;;;5103546;27;87024;-40
2023/03/27 14:26:28;;;;;;;;;;;11.30;67.80;;;;;;5102846;27;89041;-39
2023/03/27 14:28:54;;;;;;;;;;;11.30;67.70;;;;;;5071147;27;89122;-40
2023/03/27 14:31:21;;;;;;;;;;;11.30;67.80;;;;;;5103640;27;87257;-39